Terminal Aerodrome Forecast
Issued by NWS

Home | Current Version | Previous Version | Text Only | Print | Product List | Glossary On
Versions: 1 2 3 4 5 6 7 8 9 10 11 12 13 14 15
241
FTUS42 KMHX 191138
TAFISO
TAF
KISO 191138Z 1912/2012 33008KT P6SM OVC012
     FM191300 33009KT P6SM BKN020
     FM191700 33010G18KT P6SM SCT020
     FM201000 VRB03KT P6SM SKC
      AMD LTD TO CLD VIS AND WIND=

USA.gov is the U.S. government's official web portal to all federal, state and local government web resources and services.